sensor_id;sensor_type;location;lat;lon;timestamp;P1;durP1;ratioP1;P2;durP2;ratioP2
58083;SDS011;43882;51.550;11.858;2023-07-28T00:02:13;5.13;;;1.77;;
58083;SDS011;43882;51.550;11.858;2023-07-28T00:04:39;5.43;;;1.83;;
58083;SDS011;43882;51.550;11.858;2023-07-28T00:07:05;5.05;;;2.00;;
58083;SDS011;43882;51.550;11.858;2023-07-28T00:09:31;4.50;;;1.70;;
58083;SDS011;43882;51.550;11.858;2023-07-28T00:11:58;7.00;;;1.80;;
58083;SDS011;43882;51.550;11.858;2023-07-28T00:14:24;6.00;;;2.15;;
58083;SDS011;43882;51.550;11.858;2023-07-28T00:16:55;4.78;;;2.00;;
58083;SDS011;43882;51.550;11.858;2023-07-28T00:19:21;5.53;;;1.90;;
58083;SDS011;43882;51.550;11.858;2023-07-28T00:21:48;5.70;;;1.80;;
58083;SDS011;43882;51.550;11.858;2023-07-28T00:24:14;5.97;;;1.85;;
58083;SDS011;43882;51.550;11.858;2023-07-28T00:26:41;7.20;;;2.30;;
58083;SDS011;43882;51.550;11.858;2023-07-28T00:29:07;5.22;;;1.83;;
58083;SDS011;43882;51.550;11.858;2023-07-28T00:31:33;7.80;;;2.50;;
58083;SDS011;43882;51.550;11.858;2023-07-28T00:34:00;7.18;;;2.25;;
58083;SDS011;43882;51.550;11.858;2023-07-28T00:36:26;6.13;;;2.10;;
58083;SDS011;43882;51.550;11.858;2023-07-28T00:38:52;7.03;;;2.30;;
58083;SDS011;43882;51.550;11.858;2023-07-28T00:41:18;8.90;;;2.40;;
58083;SDS011;43882;51.550;11.858;2023-07-28T00:43:44;7.82;;;2.40;;
58083;SDS011;43882;51.550;11.858;2023-07-28T00:46:10;8.13;;;2.30;;
58083;SDS011;43882;51.550;11.858;2023-07-28T00:48:37;7.00;;;2.28;;
58083;SDS011;43882;51.550;11.858;2023-07-28T00:51:03;8.82;;;2.40;;
58083;SDS011;43882;51.550;11.858;2023-07-28T00:53:29;6.70;;;2.20;;
58083;SDS011;43882;51.550;11.858;2023-07-28T00:55:56;8.85;;;2.15;;
58083;SDS011;43882;51.550;11.858;2023-07-28T00:58:22;6.88;;;2.28;;
58083;SDS011;43882;51.550;11.858;2023-07-28T01:00:48;8.10;;;2.40;;
58083;SDS011;43882;51.550;11.858;2023-07-28T01:03:15;8.23;;;2.33;;
58083;SDS011;43882;51.550;11.858;2023-07-28T01:06:03;7.45;;;2.40;;
58083;SDS011;43882;51.550;11.858;2023-07-28T01:11:12;8.93;;;2.22;;
58083;SDS011;43882;51.550;11.858;2023-07-28T01:13:39;6.75;;;2.30;;
58083;SDS011;43882;51.550;11.858;2023-07-28T01:16:05;5.72;;;2.17;;
58083;SDS011;43882;51.550;11.858;2023-07-28T01:18:31;7.65;;;2.40;;
58083;SDS011;43882;51.550;11.858;2023-07-28T01:20:58;8.65;;;2.40;;
58083;SDS011;43882;51.550;11.858;2023-07-28T01:23:39;7.15;;;2.30;;
58083;SDS011;43882;51.550;11.858;2023-07-28T01:26:30;6.00;;;2.28;;
58083;SDS011;43882;51.550;11.858;2023-07-28T01:28:57;8.27;;;2.28;;
58083;SDS011;43882;51.550;11.858;2023-07-28T01:31:24;7.82;;;2.30;;
58083;SDS011;43882;51.550;11.858;2023-07-28T01:33:50;6.00;;;2.10;;
58083;SDS011;43882;51.550;11.858;2023-07-28T01:36:16;8.20;;;2.20;;
58083;SDS011;43882;51.550;11.858;2023-07-28T01:38:42;6.63;;;2.20;;
58083;SDS011;43882;51.550;11.858;2023-07-28T01:41:08;8.43;;;2.40;;
58083;SDS011;43882;51.550;11.858;2023-07-28T01:43:34;7.63;;;2.20;;
58083;SDS011;43882;51.550;11.858;2023-07-28T01:46:00;6.97;;;2.10;;
58083;SDS011;43882;51.550;11.858;2023-07-28T01:48:26;7.03;;;2.15;;
58083;SDS011;43882;51.550;11.858;2023-07-28T01:50:52;6.32;;;2.13;;
58083;SDS011;43882;51.550;11.858;2023-07-28T01:53:19;8.50;;;2.13;;
58083;SDS011;43882;51.550;11.858;2023-07-28T01:55:45;10.20;;;2.50;;
58083;SDS011;43882;51.550;11.858;2023-07-28T01:58:11;9.20;;;2.47;;
58083;SDS011;43882;51.550;11.858;2023-07-28T02:00:37;5.82;;;2.25;;
58083;SDS011;43882;51.550;11.858;2023-07-28T02:03:03;5.93;;;2.00;;
58083;SDS011;43882;51.550;11.858;2023-07-28T02:05:30;7.10;;;2.10;;
58083;SDS011;43882;51.550;11.858;2023-07-28T02:07:56;6.63;;;2.20;;
58083;SDS011;43882;51.550;11.858;2023-07-28T02:10:23;5.72;;;2.00;;
58083;SDS011;43882;51.550;11.858;2023-07-28T02:12:50;5.20;;;2.00;;
58083;SDS011;43882;51.550;11.858;2023-07-28T02:15:17;5.68;;;1.83;;
58083;SDS011;43882;51.550;11.858;2023-07-28T02:17:43;6.05;;;2.30;;
58083;SDS011;43882;51.550;11.858;2023-07-28T02:20:09;8.43;;;2.00;;
58083;SDS011;43882;51.550;11.858;2023-07-28T02:22:38;7.72;;;2.10;;
58083;SDS011;43882;51.550;11.858;2023-07-28T02:25:04;6.90;;;2.60;;
58083;SDS011;43882;51.550;11.858;2023-07-28T02:27:31;5.28;;;2.13;;
58083;SDS011;43882;51.550;11.858;2023-07-28T02:29:57;5.85;;;2.00;;
58083;SDS011;43882;51.550;11.858;2023-07-28T02:32:23;6.13;;;2.10;;
58083;SDS011;43882;51.550;11.858;2023-07-28T02:34:49;4.43;;;2.10;;
58083;SDS011;43882;51.550;11.858;2023-07-28T02:37:15;6.22;;;2.50;;
58083;SDS011;43882;51.550;11.858;2023-07-28T02:39:41;8.10;;;2.25;;
58083;SDS011;43882;51.550;11.858;2023-07-28T02:42:08;4.28;;;1.85;;
58083;SDS011;43882;51.550;11.858;2023-07-28T02:44:34;4.72;;;1.70;;
58083;SDS011;43882;51.550;11.858;2023-07-28T02:47:00;3.63;;;1.70;;
58083;SDS011;43882;51.550;11.858;2023-07-28T02:49:26;5.60;;;1.90;;
58083;SDS011;43882;51.550;11.858;2023-07-28T02:51:52;7.68;;;1.90;;
58083;SDS011;43882;51.550;11.858;2023-07-28T02:54:18;6.05;;;1.88;;
58083;SDS011;43882;51.550;11.858;2023-07-28T02:56:44;5.20;;;1.67;;
58083;SDS011;43882;51.550;11.858;2023-07-28T02:59:10;5.72;;;2.00;;
58083;SDS011;43882;51.550;11.858;2023-07-28T03:01:36;6.63;;;2.00;;
58083;SDS011;43882;51.550;11.858;2023-07-28T03:04:02;5.43;;;1.85;;
58083;SDS011;43882;51.550;11.858;2023-07-28T03:08:55;5.70;;;1.85;;
58083;SDS011;43882;51.550;11.858;2023-07-28T03:11:21;6.95;;;2.10;;
58083;SDS011;43882;51.550;11.858;2023-07-28T03:13:47;6.47;;;2.47;;
58083;SDS011;43882;51.550;11.858;2023-07-28T03:16:13;6.72;;;2.13;;
58083;SDS011;43882;51.550;11.858;2023-07-28T03:18:39;5.78;;;2.03;;
58083;SDS011;43882;51.550;11.858;2023-07-28T03:21:05;7.25;;;2.20;;
58083;SDS011;43882;51.550;11.858;2023-07-28T03:23:32;6.00;;;1.80;;
58083;SDS011;43882;51.550;11.858;2023-07-28T03:25:58;8.02;;;2.20;;
58083;SDS011;43882;51.550;11.858;2023-07-28T03:28:24;6.60;;;1.92;;
58083;SDS011;43882;51.550;11.858;2023-07-28T03:30:51;7.30;;;1.90;;
58083;SDS011;43882;51.550;11.858;2023-07-28T03:33:17;9.73;;;2.50;;
58083;SDS011;43882;51.550;11.858;2023-07-28T03:35:43;6.40;;;1.90;;
58083;SDS011;43882;51.550;11.858;2023-07-28T03:38:09;7.45;;;2.28;;
58083;SDS011;43882;51.550;11.858;2023-07-28T03:40:35;7.10;;;1.98;;
58083;SDS011;43882;51.550;11.858;2023-07-28T03:43:02;9.55;;;2.35;;
58083;SDS011;43882;51.550;11.858;2023-07-28T03:45:28;6.40;;;2.10;;
58083;SDS011;43882;51.550;11.858;2023-07-28T03:47:54;8.63;;;2.20;;
58083;SDS011;43882;51.550;11.858;2023-07-28T03:50:20;7.65;;;2.30;;
58083;SDS011;43882;51.550;11.858;2023-07-28T03:52:47;6.68;;;1.90;;
58083;SDS011;43882;51.550;11.858;2023-07-28T03:55:14;7.85;;;2.40;;
58083;SDS011;43882;51.550;11.858;2023-07-28T03:57:40;6.97;;;1.95;;
58083;SDS011;43882;51.550;11.858;2023-07-28T04:00:06;6.22;;;1.95;;
58083;SDS011;43882;51.550;11.858;2023-07-28T04:02:33;8.60;;;1.90;;
58083;SDS011;43882;51.550;11.858;2023-07-28T04:04:59;6.20;;;1.98;;
58083;SDS011;43882;51.550;11.858;2023-07-28T04:07:25;6.22;;;1.90;;
58083;SDS011;43882;51.550;11.858;2023-07-28T04:09:51;6.88;;;1.80;;
58083;SDS011;43882;51.550;11.858;2023-07-28T04:12:17;5.05;;;1.80;;
58083;SDS011;43882;51.550;11.858;2023-07-28T04:14:43;6.97;;;2.05;;
58083;SDS011;43882;51.550;11.858;2023-07-28T04:17:09;6.97;;;2.08;;
58083;SDS011;43882;51.550;11.858;2023-07-28T04:19:36;5.35;;;1.83;;
58083;SDS011;43882;51.550;11.858;2023-07-28T04:22:02;8.27;;;1.85;;
58083;SDS011;43882;51.550;11.858;2023-07-28T04:24:28;6.90;;;1.90;;
58083;SDS011;43882;51.550;11.858;2023-07-28T04:26:55;6.88;;;1.65;;
58083;SDS011;43882;51.550;11.858;2023-07-28T04:29:21;7.32;;;2.10;;
58083;SDS011;43882;51.550;11.858;2023-07-28T04:31:47;3.67;;;1.70;;
58083;SDS011;43882;51.550;11.858;2023-07-28T04:34:13;5.47;;;1.77;;
58083;SDS011;43882;51.550;11.858;2023-07-28T04:36:40;6.93;;;2.03;;
58083;SDS011;43882;51.550;11.858;2023-07-28T04:39:06;6.60;;;1.83;;
58083;SDS011;43882;51.550;11.858;2023-07-28T04:41:32;6.28;;;2.00;;
58083;SDS011;43882;51.550;11.858;2023-07-28T04:43:58;5.72;;;1.80;;
58083;SDS011;43882;51.550;11.858;2023-07-28T04:46:24;6.65;;;1.90;;
58083;SDS011;43882;51.550;11.858;2023-07-28T04:48:50;4.72;;;1.67;;
58083;SDS011;43882;51.550;11.858;2023-07-28T04:51:18;4.07;;;1.70;;
58083;SDS011;43882;51.550;11.858;2023-07-28T04:53:44;4.55;;;1.60;;
58083;SDS011;43882;51.550;11.858;2023-07-28T04:56:10;5.00;;;1.77;;
58083;SDS011;43882;51.550;11.858;2023-07-28T04:58:36;7.55;;;1.75;;
58083;SDS011;43882;51.550;11.858;2023-07-28T05:01:02;6.38;;;1.90;;
58083;SDS011;43882;51.550;11.858;2023-07-28T05:03:30;6.72;;;2.03;;
58083;SDS011;43882;51.550;11.858;2023-07-28T05:05:56;6.28;;;1.77;;
58083;SDS011;43882;51.550;11.858;2023-07-28T05:08:22;4.45;;;1.50;;
58083;SDS011;43882;51.550;11.858;2023-07-28T05:10:48;5.25;;;1.52;;
58083;SDS011;43882;51.550;11.858;2023-07-28T05:13:14;5.32;;;1.70;;
58083;SDS011;43882;51.550;11.858;2023-07-28T05:15:40;4.70;;;1.70;;
58083;SDS011;43882;51.550;11.858;2023-07-28T05:18:06;6.53;;;1.75;;
58083;SDS011;43882;51.550;11.858;2023-07-28T05:20:32;4.22;;;1.60;;
58083;SDS011;43882;51.550;11.858;2023-07-28T05:22:58;6.95;;;1.80;;
58083;SDS011;43882;51.550;11.858;2023-07-28T05:25:24;4.68;;;1.52;;
58083;SDS011;43882;51.550;11.858;2023-07-28T05:27:51;4.65;;;1.40;;
58083;SDS011;43882;51.550;11.858;2023-07-28T05:30:17;6.32;;;1.80;;
58083;SDS011;43882;51.550;11.858;2023-07-28T05:32:43;7.70;;;1.77;;
58083;SDS011;43882;51.550;11.858;2023-07-28T05:35:11;4.05;;;1.30;;
58083;SDS011;43882;51.550;11.858;2023-07-28T05:37:37;7.68;;;1.95;;
58083;SDS011;43882;51.550;11.858;2023-07-28T05:40:03;5.15;;;1.52;;
58083;SDS011;43882;51.550;11.858;2023-07-28T05:42:30;6.57;;;1.70;;
58083;SDS011;43882;51.550;11.858;2023-07-28T05:44:56;6.25;;;1.60;;
58083;SDS011;43882;51.550;11.858;2023-07-28T05:47:22;7.30;;;1.48;;
58083;SDS011;43882;51.550;11.858;2023-07-28T05:49:48;3.92;;;1.23;;
58083;SDS011;43882;51.550;11.858;2023-07-28T05:52:14;5.18;;;1.35;;
58083;SDS011;43882;51.550;11.858;2023-07-28T05:54:40;4.63;;;1.52;;
58083;SDS011;43882;51.550;11.858;2023-07-28T05:57:06;3.35;;;1.23;;
58083;SDS011;43882;51.550;11.858;2023-07-28T05:59:32;3.88;;;1.20;;
58083;SDS011;43882;51.550;11.858;2023-07-28T06:01:58;4.88;;;1.52;;
58083;SDS011;43882;51.550;11.858;2023-07-28T06:04:24;4.65;;;1.40;;
58083;SDS011;43882;51.550;11.858;2023-07-28T06:06:50;5.38;;;1.60;;
58083;SDS011;43882;51.550;11.858;2023-07-28T06:09:17;5.82;;;1.55;;
58083;SDS011;43882;51.550;11.858;2023-07-28T06:11:43;4.20;;;1.15;;
58083;SDS011;43882;51.550;11.858;2023-07-28T06:14:09;5.40;;;1.45;;
58083;SDS011;43882;51.550;11.858;2023-07-28T06:16:35;4.90;;;1.15;;
58083;SDS011;43882;51.550;11.858;2023-07-28T06:19:01;6.03;;;1.40;;
58083;SDS011;43882;51.550;11.858;2023-07-28T06:21:29;3.08;;;1.35;;
58083;SDS011;43882;51.550;11.858;2023-07-28T06:23:55;3.35;;;1.13;;
58083;SDS011;43882;51.550;11.858;2023-07-28T06:26:21;4.85;;;1.38;;
58083;SDS011;43882;51.550;11.858;2023-07-28T06:28:47;2.97;;;1.27;;
58083;SDS011;43882;51.550;11.858;2023-07-28T06:31:13;4.43;;;1.20;;
58083;SDS011;43882;51.550;11.858;2023-07-28T06:33:39;3.97;;;1.42;;
58083;SDS011;43882;51.550;11.858;2023-07-28T06:36:05;1.73;;;1.10;;
58083;SDS011;43882;51.550;11.858;2023-07-28T06:38:32;4.28;;;1.38;;
58083;SDS011;43882;51.550;11.858;2023-07-28T06:40:58;3.15;;;1.30;;
58083;SDS011;43882;51.550;11.858;2023-07-28T06:43:25;4.78;;;1.40;;
58083;SDS011;43882;51.550;11.858;2023-07-28T06:45:52;4.43;;;1.20;;
58083;SDS011;43882;51.550;11.858;2023-07-28T06:48:19;2.28;;;1.10;;
58083;SDS011;43882;51.550;11.858;2023-07-28T06:50:45;4.40;;;1.38;;
58083;SDS011;43882;51.550;11.858;2023-07-28T06:53:11;3.35;;;1.15;;
58083;SDS011;43882;51.550;11.858;2023-07-28T06:55:37;4.25;;;1.17;;
58083;SDS011;43882;51.550;11.858;2023-07-28T06:58:04;3.05;;;1.15;;
58083;SDS011;43882;51.550;11.858;2023-07-28T07:00:31;2.72;;;1.05;;
58083;SDS011;43882;51.550;11.858;2023-07-28T07:02:58;3.42;;;1.50;;
58083;SDS011;43882;51.550;11.858;2023-07-28T07:05:24;7.00;;;1.67;;
58083;SDS011;43882;51.550;11.858;2023-07-28T07:07:50;6.25;;;1.38;;
58083;SDS011;43882;51.550;11.858;2023-07-28T07:10:17;3.83;;;1.40;;
58083;SDS011;43882;51.550;11.858;2023-07-28T07:12:45;4.65;;;1.52;;
58083;SDS011;43882;51.550;11.858;2023-07-28T07:15:12;6.07;;;1.52;;
58083;SDS011;43882;51.550;11.858;2023-07-28T07:17:38;5.20;;;1.58;;
58083;SDS011;43882;51.550;11.858;2023-07-28T07:20:04;4.80;;;1.77;;
58083;SDS011;43882;51.550;11.858;2023-07-28T07:22:31;3.47;;;1.35;;
58083;SDS011;43882;51.550;11.858;2023-07-28T07:24:57;6.80;;;1.50;;
58083;SDS011;43882;51.550;11.858;2023-07-28T07:27:24;5.80;;;1.45;;
58083;SDS011;43882;51.550;11.858;2023-07-28T07:29:50;3.50;;;1.48;;
58083;SDS011;43882;51.550;11.858;2023-07-28T07:32:17;3.85;;;1.60;;
58083;SDS011;43882;51.550;11.858;2023-07-28T07:34:43;3.13;;;1.20;;
58083;SDS011;43882;51.550;11.858;2023-07-28T07:37:09;2.75;;;1.50;;
58083;SDS011;43882;51.550;11.858;2023-07-28T07:39:35;6.43;;;1.60;;
58083;SDS011;43882;51.550;11.858;2023-07-28T07:42:01;7.05;;;1.70;;
58083;SDS011;43882;51.550;11.858;2023-07-28T07:44:28;3.67;;;1.80;;
58083;SDS011;43882;51.550;11.858;2023-07-28T07:46:54;5.53;;;1.80;;
58083;SDS011;43882;51.550;11.858;2023-07-28T07:49:21;6.28;;;2.03;;
58083;SDS011;43882;51.550;11.858;2023-07-28T07:51:48;6.15;;;1.85;;
58083;SDS011;43882;51.550;11.858;2023-07-28T07:54:14;5.45;;;1.85;;
58083;SDS011;43882;51.550;11.858;2023-07-28T07:56:43;6.20;;;1.80;;
58083;SDS011;43882;51.550;11.858;2023-07-28T07:59:11;5.35;;;1.60;;
58083;SDS011;43882;51.550;11.858;2023-07-28T08:01:37;5.57;;;1.67;;
58083;SDS011;43882;51.550;11.858;2023-07-28T08:04:04;4.38;;;1.90;;
58083;SDS011;43882;51.550;11.858;2023-07-28T08:06:30;5.20;;;1.77;;
58083;SDS011;43882;51.550;11.858;2023-07-28T08:08:56;4.28;;;1.80;;
58083;SDS011;43882;51.550;11.858;2023-07-28T08:11:24;5.80;;;1.77;;
58083;SDS011;43882;51.550;11.858;2023-07-28T08:13:50;6.60;;;2.00;;
58083;SDS011;43882;51.550;11.858;2023-07-28T08:16:16;6.43;;;1.85;;
58083;SDS011;43882;51.550;11.858;2023-07-28T08:18:42;4.03;;;1.50;;
58083;SDS011;43882;51.550;11.858;2023-07-28T08:21:08;6.55;;;1.92;;
58083;SDS011;43882;51.550;11.858;2023-07-28T08:23:35;10.00;;;1.92;;
58083;SDS011;43882;51.550;11.858;2023-07-28T08:26:01;6.55;;;1.73;;
58083;SDS011;43882;51.550;11.858;2023-07-28T08:28:27;7.50;;;2.17;;
58083;SDS011;43882;51.550;11.858;2023-07-28T08:30:54;4.53;;;1.65;;
58083;SDS011;43882;51.550;11.858;2023-07-28T08:33:21;4.38;;;1.73;;
58083;SDS011;43882;51.550;11.858;2023-07-28T08:35:47;6.68;;;1.80;;
58083;SDS011;43882;51.550;11.858;2023-07-28T08:38:14;6.65;;;2.00;;
58083;SDS011;43882;51.550;11.858;2023-07-28T08:40:40;8.98;;;2.13;;
58083;SDS011;43882;51.550;11.858;2023-07-28T08:43:08;4.50;;;1.65;;
58083;SDS011;43882;51.550;11.858;2023-07-28T08:45:34;5.50;;;1.83;;
58083;SDS011;43882;51.550;11.858;2023-07-28T08:48:00;6.15;;;2.30;;
58083;SDS011;43882;51.550;11.858;2023-07-28T08:50:26;6.18;;;1.95;;
58083;SDS011;43882;51.550;11.858;2023-07-28T08:52:52;6.10;;;2.00;;
58083;SDS011;43882;51.550;11.858;2023-07-28T08:55:19;10.13;;;2.17;;
58083;SDS011;43882;51.550;11.858;2023-07-28T08:57:46;9.70;;;2.40;;
58083;SDS011;43882;51.550;11.858;2023-07-28T09:00:12;8.95;;;2.40;;
58083;SDS011;43882;51.550;11.858;2023-07-28T09:02:42;8.10;;;2.17;;
58083;SDS011;43882;51.550;11.858;2023-07-28T09:05:16;8.10;;;2.20;;
58083;SDS011;43882;51.550;11.858;2023-07-28T09:07:46;10.10;;;2.40;;
58083;SDS011;43882;51.550;11.858;2023-07-28T09:10:12;7.22;;;2.20;;
58083;SDS011;43882;51.550;11.858;2023-07-28T09:12:48;10.23;;;2.45;;
58083;SDS011;43882;51.550;11.858;2023-07-28T09:15:14;9.38;;;2.38;;
58083;SDS011;43882;51.550;11.858;2023-07-28T09:17:42;8.40;;;2.50;;
58083;SDS011;43882;51.550;11.858;2023-07-28T09:20:09;7.45;;;2.30;;
58083;SDS011;43882;51.550;11.858;2023-07-28T09:22:42;6.18;;;2.20;;
58083;SDS011;43882;51.550;11.858;2023-07-28T09:25:12;8.20;;;2.72;;
58083;SDS011;43882;51.550;11.858;2023-07-28T09:27:39;11.98;;;2.70;;
58083;SDS011;43882;51.550;11.858;2023-07-28T09:30:05;10.60;;;2.50;;
58083;SDS011;43882;51.550;11.858;2023-07-28T09:32:33;6.65;;;2.25;;
58083;SDS011;43882;51.550;11.858;2023-07-28T09:35:05;6.60;;;2.30;;
58083;SDS011;43882;51.550;11.858;2023-07-28T09:37:40;10.63;;;2.60;;
58083;SDS011;43882;51.550;11.858;2023-07-28T09:40:08;9.02;;;2.50;;
58083;SDS011;43882;51.550;11.858;2023-07-28T09:42:41;7.75;;;2.35;;
58083;SDS011;43882;51.550;11.858;2023-07-28T09:45:10;6.80;;;2.40;;
58083;SDS011;43882;51.550;11.858;2023-07-28T09:47:36;6.80;;;2.30;;
58083;SDS011;43882;51.550;11.858;2023-07-28T09:50:06;12.13;;;2.60;;
58083;SDS011;43882;51.550;11.858;2023-07-28T09:52:36;10.43;;;2.40;;
58083;SDS011;43882;51.550;11.858;2023-07-28T09:55:07;8.93;;;2.50;;
58083;SDS011;43882;51.550;11.858;2023-07-28T09:57:39;9.77;;;2.50;;
58083;SDS011;43882;51.550;11.858;2023-07-28T10:00:11;9.35;;;2.47;;
58083;SDS011;43882;51.550;11.858;2023-07-28T10:02:39;10.27;;;2.60;;
58083;SDS011;43882;51.550;11.858;2023-07-28T10:05:05;10.30;;;2.58;;
58083;SDS011;43882;51.550;11.858;2023-07-28T10:07:39;7.28;;;2.40;;
58083;SDS011;43882;51.550;11.858;2023-07-28T10:10:06;8.13;;;2.40;;
58083;SDS011;43882;51.550;11.858;2023-07-28T10:15:18;8.82;;;2.50;;
58083;SDS011;43882;51.550;11.858;2023-07-28T10:17:51;7.65;;;2.47;;
58083;SDS011;43882;51.550;11.858;2023-07-28T10:20:29;7.63;;;2.33;;
58083;SDS011;43882;51.550;11.858;2023-07-28T10:25:40;6.55;;;2.33;;
58083;SDS011;43882;51.550;11.858;2023-07-28T10:28:28;6.38;;;2.20;;
58083;SDS011;43882;51.550;11.858;2023-07-28T10:30:57;5.07;;;2.10;;
58083;SDS011;43882;51.550;11.858;2023-07-28T10:33:27;6.75;;;2.30;;
58083;SDS011;43882;51.550;11.858;2023-07-28T10:36:14;7.00;;;2.25;;
58083;SDS011;43882;51.550;11.858;2023-07-28T10:38:42;7.85;;;2.20;;
58083;SDS011;43882;51.550;11.858;2023-07-28T10:43:35;9.40;;;2.67;;
58083;SDS011;43882;51.550;11.858;2023-07-28T10:46:01;9.60;;;2.70;;
58083;SDS011;43882;51.550;11.858;2023-07-28T10:48:29;8.55;;;2.60;;
58083;SDS011;43882;51.550;11.858;2023-07-28T10:50:55;8.25;;;2.42;;
58083;SDS011;43882;51.550;11.858;2023-07-28T10:53:21;6.30;;;2.30;;
58083;SDS011;43882;51.550;11.858;2023-07-28T10:55:47;5.50;;;2.30;;
58083;SDS011;43882;51.550;11.858;2023-07-28T10:58:13;6.20;;;2.30;;
58083;SDS011;43882;51.550;11.858;2023-07-28T11:00:39;7.28;;;2.30;;
58083;SDS011;43882;51.550;11.858;2023-07-28T11:03:07;6.75;;;2.20;;
58083;SDS011;43882;51.550;11.858;2023-07-28T11:05:35;7.38;;;2.40;;
58083;SDS011;43882;51.550;11.858;2023-07-28T11:08:02;6.80;;;2.33;;
58083;SDS011;43882;51.550;11.858;2023-07-28T11:10:29;8.18;;;2.42;;
58083;SDS011;43882;51.550;11.858;2023-07-28T11:12:57;8.75;;;2.25;;
58083;SDS011;43882;51.550;11.858;2023-07-28T11:15:24;6.40;;;2.20;;
58083;SDS011;43882;51.550;11.858;2023-07-28T11:17:51;6.40;;;2.10;;
58083;SDS011;43882;51.550;11.858;2023-07-28T11:20:18;6.50;;;2.30;;
58083;SDS011;43882;51.550;11.858;2023-07-28T11:23:01;5.88;;;2.05;;
58083;SDS011;43882;51.550;11.858;2023-07-28T11:25:29;6.63;;;2.30;;
58083;SDS011;43882;51.550;11.858;2023-07-28T11:27:56;8.30;;;2.28;;
58083;SDS011;43882;51.550;11.858;2023-07-28T11:30:22;7.50;;;2.30;;
58083;SDS011;43882;51.550;11.858;2023-07-28T11:32:50;8.00;;;2.38;;
58083;SDS011;43882;51.550;11.858;2023-07-28T11:35:18;8.65;;;2.70;;
58083;SDS011;43882;51.550;11.858;2023-07-28T11:37:45;6.72;;;2.30;;
58083;SDS011;43882;51.550;11.858;2023-07-28T11:40:14;4.95;;;2.00;;
58083;SDS011;43882;51.550;11.858;2023-07-28T11:42:45;6.93;;;2.35;;
58083;SDS011;43882;51.550;11.858;2023-07-28T11:45:16;8.73;;;2.50;;
58083;SDS011;43882;51.550;11.858;2023-07-28T11:50:26;6.57;;;2.17;;
58083;SDS011;43882;51.550;11.858;2023-07-28T11:52:54;6.72;;;2.10;;
58083;SDS011;43882;51.550;11.858;2023-07-28T11:55:22;5.15;;;2.08;;
58083;SDS011;43882;51.550;11.858;2023-07-28T11:57:49;7.47;;;2.30;;
58083;SDS011;43882;51.550;11.858;2023-07-28T12:00:16;5.65;;;2.10;;
58083;SDS011;43882;51.550;11.858;2023-07-28T12:02:42;6.90;;;2.30;;
58083;SDS011;43882;51.550;11.858;2023-07-28T12:05:12;7.00;;;2.30;;
58083;SDS011;43882;51.550;11.858;2023-07-28T12:07:40;7.32;;;2.30;;
58083;SDS011;43882;51.550;11.858;2023-07-28T12:10:06;6.28;;;2.22;;
58083;SDS011;43882;51.550;11.858;2023-07-28T12:12:47;8.13;;;2.28;;
58083;SDS011;43882;51.550;11.858;2023-07-28T12:15:20;7.60;;;2.70;;
58083;SDS011;43882;51.550;11.858;2023-07-28T12:18:11;7.70;;;2.30;;
58083;SDS011;43882;51.550;11.858;2023-07-28T12:20:44;8.45;;;2.50;;
58083;SDS011;43882;51.550;11.858;2023-07-28T12:23:21;6.72;;;2.40;;
58083;SDS011;43882;51.550;11.858;2023-07-28T12:25:48;7.90;;;2.55;;
58083;SDS011;43882;51.550;11.858;2023-07-28T12:28:15;7.25;;;2.60;;
58083;SDS011;43882;51.550;11.858;2023-07-28T12:30:42;8.25;;;2.63;;
58083;SDS011;43882;51.550;11.858;2023-07-28T12:33:08;7.30;;;2.67;;
58083;SDS011;43882;51.550;11.858;2023-07-28T12:35:35;11.63;;;2.88;;
58083;SDS011;43882;51.550;11.858;2023-07-28T12:38:01;7.20;;;2.40;;
58083;SDS011;43882;51.550;11.858;2023-07-28T12:40:33;7.70;;;2.60;;
58083;SDS011;43882;51.550;11.858;2023-07-28T12:43:00;7.03;;;2.58;;
58083;SDS011;43882;51.550;11.858;2023-07-28T12:45:27;9.93;;;2.72;;
58083;SDS011;43882;51.550;11.858;2023-07-28T12:47:53;7.22;;;2.42;;
58083;SDS011;43882;51.550;11.858;2023-07-28T12:50:20;8.48;;;2.50;;
58083;SDS011;43882;51.550;11.858;2023-07-28T12:52:47;8.98;;;2.50;;
58083;SDS011;43882;51.550;11.858;2023-07-28T12:55:14;7.07;;;2.50;;
58083;SDS011;43882;51.550;11.858;2023-07-28T12:57:41;6.88;;;2.40;;
58083;SDS011;43882;51.550;11.858;2023-07-28T13:00:07;9.32;;;2.80;;
58083;SDS011;43882;51.550;11.858;2023-07-28T13:02:40;9.77;;;2.50;;
58083;SDS011;43882;51.550;11.858;2023-07-28T13:05:08;9.00;;;2.50;;
58083;SDS011;43882;51.550;11.858;2023-07-28T13:07:38;8.98;;;2.50;;
58083;SDS011;43882;51.550;11.858;2023-07-28T13:10:06;7.40;;;2.50;;
58083;SDS011;43882;51.550;11.858;2023-07-28T13:12:36;7.50;;;2.50;;
58083;SDS011;43882;51.550;11.858;2023-07-28T13:15:03;9.25;;;2.60;;
58083;SDS011;43882;51.550;11.858;2023-07-28T13:17:29;8.15;;;2.65;;
58083;SDS011;43882;51.550;11.858;2023-07-28T13:19:55;6.30;;;2.30;;
58083;SDS011;43882;51.550;11.858;2023-07-28T13:22:22;7.00;;;2.30;;
58083;SDS011;43882;51.550;11.858;2023-07-28T13:24:48;5.95;;;2.30;;
58083;SDS011;43882;51.550;11.858;2023-07-28T13:27:15;10.82;;;2.70;;
58083;SDS011;43882;51.550;11.858;2023-07-28T13:29:41;8.25;;;2.70;;
58083;SDS011;43882;51.550;11.858;2023-07-28T13:32:17;7.45;;;2.40;;
58083;SDS011;43882;51.550;11.858;2023-07-28T13:34:47;7.95;;;2.63;;
58083;SDS011;43882;51.550;11.858;2023-07-28T13:37:13;8.82;;;2.72;;
58083;SDS011;43882;51.550;11.858;2023-07-28T13:39:41;8.25;;;2.85;;
58083;SDS011;43882;51.550;11.858;2023-07-28T13:42:08;7.82;;;2.60;;
58083;SDS011;43882;51.550;11.858;2023-07-28T13:44:34;8.35;;;2.63;;
58083;SDS011;43882;51.550;11.858;2023-07-28T13:47:00;8.65;;;2.70;;
58083;SDS011;43882;51.550;11.858;2023-07-28T13:49:26;7.53;;;2.50;;
58083;SDS011;43882;51.550;11.858;2023-07-28T13:51:52;8.05;;;2.70;;
58083;SDS011;43882;51.550;11.858;2023-07-28T13:54:18;6.95;;;2.35;;
58083;SDS011;43882;51.550;11.858;2023-07-28T13:56:45;9.82;;;3.22;;
58083;SDS011;43882;51.550;11.858;2023-07-28T13:59:11;7.90;;;2.35;;
58083;SDS011;43882;51.550;11.858;2023-07-28T14:01:37;6.30;;;2.50;;
58083;SDS011;43882;51.550;11.858;2023-07-28T14:04:03;9.38;;;2.60;;
58083;SDS011;43882;51.550;11.858;2023-07-28T14:06:29;9.32;;;2.78;;
58083;SDS011;43882;51.550;11.858;2023-07-28T14:08:55;9.15;;;2.50;;
58083;SDS011;43882;51.550;11.858;2023-07-28T14:11:21;7.53;;;2.50;;
58083;SDS011;43882;51.550;11.858;2023-07-28T14:13:47;9.30;;;2.70;;
58083;SDS011;43882;51.550;11.858;2023-07-28T14:16:13;10.70;;;2.90;;
58083;SDS011;43882;51.550;11.858;2023-07-28T14:18:39;10.95;;;2.83;;
58083;SDS011;43882;51.550;11.858;2023-07-28T14:21:06;9.13;;;2.80;;
58083;SDS011;43882;51.550;11.858;2023-07-28T14:23:32;7.20;;;2.50;;
58083;SDS011;43882;51.550;11.858;2023-07-28T14:25:58;10.23;;;2.70;;
58083;SDS011;43882;51.550;11.858;2023-07-28T14:28:24;8.45;;;2.40;;
58083;SDS011;43882;51.550;11.858;2023-07-28T14:30:51;9.27;;;2.78;;
58083;SDS011;43882;51.550;11.858;2023-07-28T14:33:17;8.27;;;2.63;;
58083;SDS011;43882;51.550;11.858;2023-07-28T14:35:44;8.23;;;2.75;;
58083;SDS011;43882;51.550;11.858;2023-07-28T14:38:12;9.57;;;2.70;;
58083;SDS011;43882;51.550;11.858;2023-07-28T14:40:38;7.90;;;2.60;;
58083;SDS011;43882;51.550;11.858;2023-07-28T14:43:05;10.65;;;2.88;;
58083;SDS011;43882;51.550;11.858;2023-07-28T14:45:31;8.07;;;2.80;;
58083;SDS011;43882;51.550;11.858;2023-07-28T14:47:58;7.35;;;2.60;;
58083;SDS011;43882;51.550;11.858;2023-07-28T14:50:26;9.40;;;2.70;;